createdAt,value
2019-05-05T00:01:45.074Z,10.67
2019-05-05T00:04:48.435Z,10.40
2019-05-05T00:07:34.958Z,10.50
2019-05-05T00:10:35.181Z,10.83
2019-05-05T00:13:31.705Z,10.33
2019-05-05T00:16:36.208Z,10.87
2019-05-05T00:19:30.713Z,10.60
2019-05-05T00:22:11.162Z,10.50
2019-05-05T00:24:57.551Z,10.40
2019-05-05T00:27:45.234Z,10.37
2019-05-05T00:30:31.798Z,10.60
2019-05-05T00:33:18.084Z,10.73
2019-05-05T00:36:07.748Z,10.40
2019-05-05T00:38:55.006Z,10.90
2019-05-05T00:41:41.374Z,10.33
2019-05-05T00:44:27.743Z,10.50
2019-05-05T00:47:51.547Z,10.37
2019-05-05T00:50:38.009Z,10.40
2019-05-05T00:53:25.022Z,10.80
2019-05-05T00:56:11.652Z,10.13
2019-05-05T00:59:04.468Z,10.40
2019-05-05T01:02:10.430Z,10.40
2019-05-05T01:05:04.612Z,10.90
2019-05-05T01:07:51.477Z,10.57
2019-05-05T01:10:37.715Z,10.87
2019-05-05T01:13:24.639Z,10.90
2019-05-05T01:16:11.195Z,10.90
2019-05-05T01:18:57.516Z,10.80
2019-05-05T01:21:45.375Z,10.80
2019-05-05T01:24:31.789Z,10.63
2019-05-05T01:27:18.358Z,10.50
2019-05-05T01:30:08.293Z,10.63
2019-05-05T01:32:59.677Z,10.60
2019-05-05T01:35:46.088Z,10.70
2019-05-05T01:38:55.241Z,10.73
2019-05-05T01:41:46.877Z,10.70
2019-05-05T01:44:35.251Z,10.80
2019-05-05T01:47:25.268Z,10.80
2019-05-05T01:50:18.420Z,10.60
2019-05-05T01:52:59.765Z,10.70
2019-05-05T01:55:46.856Z,11.70
2019-05-05T01:58:34.923Z,11.20
2019-05-05T02:01:21.715Z,10.80
2019-05-05T02:04:08.028Z,11.00
2019-05-05T02:06:55.085Z,10.70
2019-05-05T02:09:41.618Z,10.70
2019-05-05T02:12:28.108Z,10.90
2019-05-05T02:15:15.338Z,11.40
2019-05-05T02:18:01.596Z,10.90
2019-05-05T02:21:01.336Z,11.00
2019-05-05T02:23:47.781Z,11.23
2019-05-05T02:26:35.112Z,10.87
2019-05-05T02:29:31.427Z,10.90
2019-05-05T02:32:32.122Z,10.77
2019-05-05T02:35:18.739Z,11.00
2019-05-05T02:38:06.632Z,10.80
2019-05-05T02:40:54.827Z,11.00
2019-05-05T02:43:41.518Z,11.70
2019-05-05T02:46:45.754Z,11.40
2019-05-05T02:49:35.200Z,11.27
2019-05-05T02:52:24.367Z,11.13
2019-05-05T02:55:11.040Z,11.30
2019-05-05T02:58:00.467Z,11.53
2019-05-05T03:00:58.447Z,11.17
2019-05-05T03:03:45.585Z,11.30
2019-05-05T03:06:34.189Z,11.80
2019-05-05T03:09:24.381Z,11.20
2019-05-05T03:12:14.761Z,11.33
2019-05-05T03:15:04.183Z,11.20
2019-05-05T03:17:50.891Z,11.30
2019-05-05T03:20:37.352Z,11.27
2019-05-05T03:23:24.139Z,11.57
2019-05-05T03:26:11.046Z,11.93
2019-05-05T03:28:59.590Z,11.30
2019-05-05T03:31:47.170Z,11.33
2019-05-05T03:34:34.320Z,11.93
2019-05-05T03:37:21.259Z,11.80
2019-05-05T03:40:15.186Z,11.37
2019-05-05T03:43:07.436Z,11.90
2019-05-05T03:45:56.532Z,11.30
2019-05-05T03:48:43.820Z,11.83
2019-05-05T03:51:30.779Z,10.93
2019-05-05T03:54:18.099Z,11.80
2019-05-05T03:57:07.605Z,11.20
2019-05-05T03:59:54.770Z,11.33
2019-05-05T04:02:53.846Z,11.17
2019-05-05T04:05:55.683Z,11.63
2019-05-05T04:08:44.318Z,11.80
2019-05-05T04:11:30.708Z,11.33
2019-05-05T04:14:18.557Z,11.60
2019-05-05T04:17:17.362Z,11.80
2019-05-05T04:20:24.235Z,11.37
2019-05-05T04:23:10.804Z,11.43
2019-05-05T04:25:57.092Z,11.67
2019-05-05T04:28:43.707Z,11.37
2019-05-05T04:31:30.536Z,11.20
2019-05-05T04:34:16.785Z,11.13
2019-05-05T04:37:04.172Z,11.43
2019-05-05T04:39:53.744Z,11.37
2019-05-05T04:42:40.553Z,11.43
2019-05-05T04:45:26.936Z,11.63
2019-05-05T04:48:19.162Z,11.27
2019-05-05T04:51:13.887Z,11.20
2019-05-05T04:54:18.020Z,11.60
2019-05-05T04:57:04.677Z,11.53
2019-05-05T04:59:53.998Z,11.30
2019-05-05T05:02:51.350Z,11.63
2019-05-05T05:06:14.537Z,11.27
2019-05-05T05:09:01.100Z,11.47
2019-05-05T05:11:48.036Z,11.30
2019-05-05T05:14:34.770Z,11.40
2019-05-05T05:17:31.088Z,11.10
2019-05-05T05:20:17.833Z,11.93
2019-05-05T05:23:04.294Z,11.17
2019-05-05T05:25:50.552Z,11.80
2019-05-05T05:28:36.995Z,11.87
2019-05-05T05:31:24.493Z,11.93
2019-05-05T05:34:11.316Z,11.10
2019-05-05T05:36:57.666Z,11.60
2019-05-05T05:39:54.451Z,11.47
2019-05-05T05:42:40.730Z,11.77
2019-05-05T05:45:43.638Z,11.43
2019-05-05T05:48:37.783Z,11.30
2019-05-05T05:51:24.082Z,11.77
2019-05-05T05:54:10.466Z,11.47
2019-05-05T05:56:56.919Z,11.70
2019-05-05T05:59:44.492Z,11.23
2019-05-05T06:02:33.387Z,11.27
2019-05-05T06:05:19.722Z,11.87
2019-05-05T06:08:06.327Z,11.33
2019-05-05T06:10:54.524Z,11.30
2019-05-05T06:13:40.895Z,11.70
2019-05-05T06:16:27.197Z,11.20
2019-05-05T06:19:14.053Z,11.17
2019-05-05T06:22:00.751Z,11.10
2019-05-05T06:24:47.120Z,11.07
2019-05-05T06:27:34.246Z,10.90
2019-05-05T06:30:21.054Z,11.20
2019-05-05T06:33:07.370Z,11.27
2019-05-05T06:35:53.782Z,11.30
2019-05-05T06:38:40.089Z,10.60
2019-05-05T06:41:35.926Z,10.60
2019-05-05T06:44:50.883Z,11.07
2019-05-05T06:47:40.433Z,10.83
2019-05-05T06:50:27.060Z,11.10
2019-05-05T06:53:13.924Z,11.17
2019-05-05T06:56:00.795Z,11.10
2019-05-05T06:58:47.086Z,11.10
2019-05-05T07:01:33.863Z,11.20
2019-05-05T07:04:21.150Z,11.33
2019-05-05T07:07:07.485Z,10.50
2019-05-05T07:09:54.376Z,10.73
2019-05-05T07:12:40.958Z,11.20
2019-05-05T07:15:27.719Z,11.30
2019-05-05T07:18:14.343Z,10.93
2019-05-05T07:21:01.207Z,10.60
2019-05-05T07:23:53.972Z,10.57
2019-05-05T07:26:44.517Z,10.93
2019-05-05T07:29:30.426Z,10.77
2019-05-05T07:32:16.769Z,10.80
2019-05-05T07:35:14.441Z,11.37
2019-05-05T07:38:00.813Z,10.50
2019-05-05T07:40:47.271Z,10.73
2019-05-05T07:43:34.457Z,10.47
2019-05-05T07:46:21.259Z,10.40
2019-05-05T07:49:07.777Z,10.37
2019-05-05T07:51:54.812Z,10.37
2019-05-05T07:54:43.520Z,10.60
2019-05-05T07:57:30.418Z,10.87
2019-05-05T08:00:17.079Z,10.50
2019-05-05T08:03:03.926Z,10.43
2019-05-05T08:05:51.831Z,10.63
2019-05-05T08:08:38.188Z,10.70
2019-05-05T08:11:24.960Z,11.23
2019-05-05T08:14:11.329Z,10.90
2019-05-05T08:17:06.146Z,10.60
2019-05-05T08:19:56.676Z,10.30
2019-05-05T08:22:44.300Z,10.47
2019-05-05T08:25:40.556Z,10.67
2019-05-05T08:28:49.507Z,10.60
2019-05-05T08:31:48.605Z,10.53
2019-05-05T08:34:36.764Z,10.40
2019-05-05T08:37:23.702Z,10.60
2019-05-05T08:40:11.047Z,10.30
2019-05-05T08:43:07.978Z,10.30
2019-05-05T08:46:09.117Z,10.30
2019-05-05T08:48:59.257Z,10.50
2019-05-05T08:51:47.381Z,9.90
2019-05-05T08:54:48.234Z,10.43
2019-05-05T08:58:43.772Z,9.83
2019-05-05T09:01:41.094Z,10.73
2019-05-05T09:04:27.876Z,10.50
2019-05-05T09:07:24.164Z,9.90
2019-05-05T09:10:14.262Z,10.87
2019-05-05T09:13:06.816Z,12.20
2019-05-05T09:16:45.355Z,10.73
2019-05-05T09:24:45.229Z,11.10
2019-05-05T09:49:44.488Z,10.77
2019-05-05T09:52:05.483Z,13.77
2019-05-05T10:06:26.872Z,9.93
2019-05-05T10:09:34.695Z,9.77
2019-05-05T10:12:24.030Z,19.00
2019-05-05T10:15:13.864Z,9.50
2019-05-05T10:19:09.220Z,9.43
2019-05-05T10:26:00.227Z,10.97
2019-05-05T10:29:16.046Z,9.30
2019-05-05T10:32:04.583Z,9.40
2019-05-05T10:35:04.528Z,9.30
2019-05-05T10:37:59.964Z,9.30
2019-05-05T10:40:48.338Z,9.57
2019-05-05T10:43:34.992Z,9.77
2019-05-05T10:46:24.689Z,9.60
2019-05-05T10:53:25.174Z,9.40
2019-05-05T10:56:30.067Z,9.90
2019-05-05T11:02:55.562Z,9.40
2019-05-05T11:05:53.858Z,9.30
2019-05-05T11:09:07.121Z,9.50
2019-05-05T11:12:10.922Z,9.40
2019-05-05T11:15:03.946Z,9.63
2019-05-05T11:17:58.902Z,9.40
2019-05-05T11:21:27.708Z,9.53
2019-05-05T11:24:34.615Z,9.37
2019-05-05T11:27:23.984Z,9.70
2019-05-05T11:30:26.776Z,9.50
2019-05-05T11:33:54.195Z,9.43
2019-05-05T11:36:45.547Z,9.50
2019-05-05T11:39:36.009Z,9.17
2019-05-05T11:42:24.849Z,9.73
2019-05-05T11:45:21.502Z,9.67
2019-05-05T11:48:17.594Z,9.40
2019-05-05T11:55:11.926Z,9.47
2019-05-05T11:57:57.716Z,9.37
2019-05-05T12:00:44.677Z,9.90
2019-05-05T12:03:33.779Z,10.00
2019-05-05T12:21:56.788Z,9.33
2019-05-05T12:27:56.898Z,10.13
2019-05-05T12:57:46.161Z,9.40
2019-05-05T13:09:58.910Z,9.00
2019-05-05T13:17:38.373Z,9.30
2019-05-05T13:21:15.870Z,9.20
2019-05-05T13:24:54.149Z,9.13
2019-05-05T14:00:19.369Z,8.93
2019-05-05T14:07:39.534Z,22.70
2019-05-05T14:10:28.166Z,9.20
2019-05-05T14:13:15.289Z,10.83
2019-05-05T14:16:03.890Z,9.73
2019-05-05T14:18:50.337Z,9.83
2019-05-05T14:21:36.678Z,9.40
2019-05-05T14:24:34.037Z,9.70
2019-05-05T14:27:20.493Z,10.00
2019-05-05T14:30:27.734Z,10.20
2019-05-05T14:33:20.741Z,9.47
2019-05-05T14:36:30.059Z,9.30
2019-05-05T14:39:17.024Z,9.70
2019-05-05T14:42:04.476Z,15.10
2019-05-05T14:44:51.230Z,9.37
2019-05-05T14:47:37.651Z,9.70
2019-05-05T14:50:24.353Z,9.10
2019-05-05T14:53:10.895Z,9.20
2019-05-05T14:55:57.329Z,9.23
2019-05-05T14:58:43.891Z,9.30
2019-05-05T15:01:30.356Z,9.23
2019-05-05T15:04:18.650Z,9.10
2019-05-05T15:07:27.272Z,9.30
2019-05-05T15:10:34.351Z,9.00
2019-05-05T15:13:21.525Z,9.23
2019-05-05T15:16:10.114Z,9.20
2019-05-05T15:18:56.228Z,9.33
2019-05-05T15:21:44.313Z,9.43
2019-05-05T15:24:31.182Z,9.30
2019-05-05T15:27:17.588Z,9.37
2019-05-05T15:30:04.965Z,9.30
2019-05-05T15:32:51.397Z,9.03
2019-05-05T15:35:38.196Z,9.50
2019-05-05T15:38:24.605Z,9.07
2019-05-05T15:41:11.111Z,9.57
2019-05-05T15:43:57.404Z,9.80
2019-05-05T15:46:44.296Z,9.40
2019-05-05T15:49:30.686Z,9.50
2019-05-05T15:52:20.005Z,9.40
2019-05-05T15:55:05.586Z,15.27
2019-05-05T15:57:53.395Z,10.40
2019-05-05T16:00:39.825Z,10.00
2019-05-05T16:03:26.641Z,9.57
2019-05-05T16:06:14.288Z,9.73
2019-05-05T16:09:01.029Z,10.60
2019-05-05T16:11:49.155Z,37.33
2019-05-05T16:14:38.462Z,39.13
2019-05-05T16:17:40.992Z,46.83
2019-05-05T16:20:33.229Z,19.30
2019-05-05T16:23:27.226Z,15.83
2019-05-05T16:26:13.985Z,10.73
2019-05-05T16:29:00.510Z,12.73
2019-05-05T16:31:47.220Z,10.37
2019-05-05T16:34:33.778Z,10.27
2019-05-05T16:37:42.595Z,9.73
2019-05-05T16:40:29.742Z,9.93
